sensor_id;sensor_type;location;lat;lon;timestamp;pressure;altitude;pressure_sealevel;temperature;humidity
15794;BME280;7999;51.208;4.244;2023-02-01T00:01:41;102240.91;;;4.63;100.00
15794;BME280;7999;51.208;4.244;2023-02-01T00:04:08;102228.56;;;4.56;100.00
15794;BME280;7999;51.208;4.244;2023-02-01T00:06:35;102215.41;;;4.50;100.00
15794;BME280;7999;51.208;4.244;2023-02-01T00:09:03;102230.44;;;4.41;100.00
15794;BME280;7999;51.208;4.244;2023-02-01T00:11:32;102226.97;;;4.41;100.00
15794;BME280;7999;51.208;4.244;2023-02-01T00:13:59;102226.38;;;4.46;100.00
15794;BME280;7999;51.208;4.244;2023-02-01T00:16:27;102217.13;;;4.32;100.00
15794;BME280;7999;51.208;4.244;2023-02-01T00:18:56;102207.34;;;4.25;100.00
15794;BME280;7999;51.208;4.244;2023-02-01T00:21:23;102208.44;;;4.30;100.00
15794;BME280;7999;51.208;4.244;2023-02-01T00:23:50;102196.25;;;4.26;100.00
15794;BME280;7999;51.208;4.244;2023-02-01T00:26:18;102195.97;;;4.20;100.00
15794;BME280;7999;51.208;4.244;2023-02-01T00:28:47;102191.97;;;4.09;100.00
15794;BME280;7999;51.208;4.244;2023-02-01T00:31:14;102189.72;;;4.15;100.00
15794;BME280;7999;51.208;4.244;2023-02-01T00:33:41;102188.03;;;4.15;100.00
15794;BME280;7999;51.208;4.244;2023-02-01T00:36:08;102187.72;;;4.09;100.00
15794;BME280;7999;51.208;4.244;2023-02-01T00:38:36;102178.00;;;4.03;100.00
15794;BME280;7999;51.208;4.244;2023-02-01T00:41:05;102180.88;;;4.10;100.00
15794;BME280;7999;51.208;4.244;2023-02-01T00:43:33;102181.53;;;4.06;100.00
15794;BME280;7999;51.208;4.244;2023-02-01T00:46:01;102183.16;;;4.03;100.00
15794;BME280;7999;51.208;4.244;2023-02-01T00:48:29;102178.81;;;4.02;100.00
15794;BME280;7999;51.208;4.244;2023-02-01T00:50:58;102183.00;;;4.00;100.00
15794;BME280;7999;51.208;4.244;2023-02-01T00:53:25;102195.94;;;4.02;100.00
15794;BME280;7999;51.208;4.244;2023-02-01T00:55:51;102207.13;;;4.02;100.00
15794;BME280;7999;51.208;4.244;2023-02-01T00:58:18;102206.84;;;3.96;100.00
15794;BME280;7999;51.208;4.244;2023-02-01T01:00:45;102214.03;;;3.86;100.00
15794;BME280;7999;51.208;4.244;2023-02-01T01:03:16;102214.59;;;3.80;100.00
15794;BME280;7999;51.208;4.244;2023-02-01T01:05:46;102215.94;;;3.72;100.00
15794;BME280;7999;51.208;4.244;2023-02-01T01:08:13;102212.53;;;3.73;100.00
15794;BME280;7999;51.208;4.244;2023-02-01T01:10:46;102203.88;;;3.71;100.00
15794;BME280;7999;51.208;4.244;2023-02-01T01:13:12;102197.13;;;3.73;100.00
15794;BME280;7999;51.208;4.244;2023-02-01T01:15:40;102189.41;;;3.73;100.00
15794;BME280;7999;51.208;4.244;2023-02-01T01:18:07;102182.41;;;3.70;100.00
15794;BME280;7999;51.208;4.244;2023-02-01T01:20:35;102185.34;;;3.78;100.00
15794;BME280;7999;51.208;4.244;2023-02-01T01:23:03;102188.59;;;3.74;100.00
15794;BME280;7999;51.208;4.244;2023-02-01T01:25:36;102183.97;;;3.67;100.00
15794;BME280;7999;51.208;4.244;2023-02-01T01:28:03;102186.25;;;3.79;100.00
15794;BME280;7999;51.208;4.244;2023-02-01T01:30:30;102180.28;;;3.80;100.00
15794;BME280;7999;51.208;4.244;2023-02-01T01:32:56;102183.75;;;3.80;100.00
15794;BME280;7999;51.208;4.244;2023-02-01T01:35:23;102200.50;;;3.72;100.00
15794;BME280;7999;51.208;4.244;2023-02-01T01:37:51;102193.72;;;3.74;100.00
15794;BME280;7999;51.208;4.244;2023-02-01T01:40:20;102208.34;;;3.75;100.00
15794;BME280;7999;51.208;4.244;2023-02-01T01:42:47;102208.28;;;3.73;100.00
15794;BME280;7999;51.208;4.244;2023-02-01T01:45:20;102210.63;;;3.69;100.00
15794;BME280;7999;51.208;4.244;2023-02-01T01:47:48;102210.63;;;3.69;100.00
15794;BME280;7999;51.208;4.244;2023-02-01T01:50:18;102211.59;;;3.71;100.00
15794;BME280;7999;51.208;4.244;2023-02-01T01:52:46;102219.97;;;3.67;100.00
15794;BME280;7999;51.208;4.244;2023-02-01T01:55:17;102215.78;;;3.69;100.00
15794;BME280;7999;51.208;4.244;2023-02-01T01:57:46;102203.22;;;3.75;100.00
15794;BME280;7999;51.208;4.244;2023-02-01T02:00:14;102205.94;;;3.78;100.00
15794;BME280;7999;51.208;4.244;2023-02-01T02:02:44;102208.06;;;3.69;100.00
15794;BME280;7999;51.208;4.244;2023-02-01T02:05:13;102203.66;;;3.66;100.00
15794;BME280;7999;51.208;4.244;2023-02-01T02:07:42;102207.09;;;3.67;100.00
15794;BME280;7999;51.208;4.244;2023-02-01T02:10:11;102208.34;;;3.57;100.00
15794;BME280;7999;51.208;4.244;2023-02-01T02:12:40;102198.13;;;3.59;100.00
15794;BME280;7999;51.208;4.244;2023-02-01T02:15:08;102190.25;;;3.56;100.00
15794;BME280;7999;51.208;4.244;2023-02-01T02:17:36;102173.88;;;3.54;100.00
15794;BME280;7999;51.208;4.244;2023-02-01T02:23:08;102177.50;;;3.57;100.00
15794;BME280;7999;51.208;4.244;2023-02-01T02:25:50;102186.53;;;3.67;100.00
15794;BME280;7999;51.208;4.244;2023-02-01T02:28:33;102171.41;;;3.73;100.00
15794;BME280;7999;51.208;4.244;2023-02-01T02:31:13;102168.16;;;3.77;100.00
15794;BME280;7999;51.208;4.244;2023-02-01T02:33:52;102176.69;;;3.76;100.00
15794;BME280;7999;51.208;4.244;2023-02-01T02:36:28;102176.69;;;3.76;100.00
15794;BME280;7999;51.208;4.244;2023-02-01T02:39:00;102164.50;;;3.72;100.00
15794;BME280;7999;51.208;4.244;2023-02-01T02:41:31;102167.88;;;3.71;100.00
15794;BME280;7999;51.208;4.244;2023-02-01T02:44:20;102158.09;;;3.82;100.00
15794;BME280;7999;51.208;4.244;2023-02-01T02:47:13;102152.00;;;3.80;100.00
15794;BME280;7999;51.208;4.244;2023-02-01T02:50:00;102154.50;;;3.78;100.00
15794;BME280;7999;51.208;4.244;2023-02-01T02:52:51;102157.88;;;3.77;100.00
15794;BME280;7999;51.208;4.244;2023-02-01T02:55:39;102150.22;;;3.79;100.00
15794;BME280;7999;51.208;4.244;2023-02-01T02:58:06;102150.16;;;3.77;100.00
15794;BME280;7999;51.208;4.244;2023-02-01T03:00:51;102150.16;;;3.77;100.00
15794;BME280;7999;51.208;4.244;2023-02-01T03:03:39;102153.13;;;3.85;100.00
15794;BME280;7999;51.208;4.244;2023-02-01T03:06:25;102138.56;;;3.85;100.00
15794;BME280;7999;51.208;4.244;2023-02-01T03:08:54;102150.91;;;3.92;100.00
15794;BME280;7999;51.208;4.244;2023-02-01T03:11:24;102155.53;;;3.99;100.00
15794;BME280;7999;51.208;4.244;2023-02-01T03:14:13;102145.09;;;3.96;100.00
15794;BME280;7999;51.208;4.244;2023-02-01T03:16:40;102141.56;;;3.94;100.00
15794;BME280;7999;51.208;4.244;2023-02-01T03:19:11;102152.88;;;3.98;100.00
15794;BME280;7999;51.208;4.244;2023-02-01T03:21:43;102156.19;;;3.95;100.00
15794;BME280;7999;51.208;4.244;2023-02-01T03:24:12;102155.38;;;3.96;100.00
15794;BME280;7999;51.208;4.244;2023-02-01T03:26:44;102152.81;;;3.96;100.00
15794;BME280;7999;51.208;4.244;2023-02-01T03:29:16;102152.75;;;3.95;100.00
15794;BME280;7999;51.208;4.244;2023-02-01T03:31:44;102165.09;;;3.84;100.00
15794;BME280;7999;51.208;4.244;2023-02-01T03:34:11;102160.25;;;3.90;100.00
15794;BME280;7999;51.208;4.244;2023-02-01T03:36:43;102164.94;;;3.81;100.00
15794;BME280;7999;51.208;4.244;2023-02-01T03:39:14;102161.72;;;3.85;100.00
15794;BME280;7999;51.208;4.244;2023-02-01T03:41:43;102170.88;;;3.80;100.00
15794;BME280;7999;51.208;4.244;2023-02-01T03:44:13;102168.59;;;3.68;100.00
15794;BME280;7999;51.208;4.244;2023-02-01T03:46:41;102174.78;;;3.72;100.00
15794;BME280;7999;51.208;4.244;2023-02-01T03:49:14;102175.72;;;3.74;100.00
15794;BME280;7999;51.208;4.244;2023-02-01T03:51:45;102174.19;;;3.60;100.00
15794;BME280;7999;51.208;4.244;2023-02-01T03:54:14;102173.31;;;3.59;100.00
15794;BME280;7999;51.208;4.244;2023-02-01T03:56:42;102174.41;;;3.64;100.00
15794;BME280;7999;51.208;4.244;2023-02-01T03:59:10;102172.34;;;3.57;100.00
15794;BME280;7999;51.208;4.244;2023-02-01T04:01:38;102175.72;;;3.56;100.00
15794;BME280;7999;51.208;4.244;2023-02-01T04:04:06;102178.06;;;3.52;100.00
15794;BME280;7999;51.208;4.244;2023-02-01T04:06:35;102180.63;;;3.52;100.00
15794;BME280;7999;51.208;4.244;2023-02-01T04:09:05;102180.53;;;3.50;100.00
15794;BME280;7999;51.208;4.244;2023-02-01T04:11:31;102192.66;;;3.53;100.00
15794;BME280;7999;51.208;4.244;2023-02-01T04:13:58;102185.63;;;3.49;100.00
15794;BME280;7999;51.208;4.244;2023-02-01T04:16:29;102182.22;;;3.50;100.00
15794;BME280;7999;51.208;4.244;2023-02-01T04:18:56;102175.25;;;3.47;100.00
15794;BME280;7999;51.208;4.244;2023-02-01T04:21:24;102176.13;;;3.48;100.00
15794;BME280;7999;51.208;4.244;2023-02-01T04:23:50;102176.72;;;3.42;100.00
15794;BME280;7999;51.208;4.244;2023-02-01T04:26:19;102173.84;;;3.36;100.00
15794;BME280;7999;51.208;4.244;2023-02-01T04:28:45;102173.78;;;3.34;100.00
15794;BME280;7999;51.208;4.244;2023-02-01T04:31:13;102174.97;;;3.41;100.00
15794;BME280;7999;51.208;4.244;2023-02-01T04:33:40;102181.94;;;3.44;100.00
15794;BME280;7999;51.208;4.244;2023-02-01T04:36:07;102172.69;;;3.47;100.00
15794;BME280;7999;51.208;4.244;2023-02-01T04:38:34;102177.53;;;3.41;100.00
15794;BME280;7999;51.208;4.244;2023-02-01T04:41:01;102182.44;;;3.36;100.00
15794;BME280;7999;51.208;4.244;2023-02-01T04:43:29;102176.50;;;3.37;100.00
15794;BME280;7999;51.208;4.244;2023-02-01T04:45:56;102180.81;;;3.38;100.00
15794;BME280;7999;51.208;4.244;2023-02-01T04:48:23;102170.41;;;3.35;100.00
15794;BME280;7999;51.208;4.244;2023-02-01T04:50:50;102171.22;;;3.34;100.00
15794;BME280;7999;51.208;4.244;2023-02-01T04:53:17;102170.25;;;3.32;100.00
15794;BME280;7999;51.208;4.244;2023-02-01T04:55:44;102165.91;;;3.31;100.00
15794;BME280;7999;51.208;4.244;2023-02-01T04:58:11;102164.31;;;3.33;100.00
15794;BME280;7999;51.208;4.244;2023-02-01T05:00:39;102168.22;;;3.27;100.00
15794;BME280;7999;51.208;4.244;2023-02-01T05:03:06;102169.09;;;3.27;100.00
15794;BME280;7999;51.208;4.244;2023-02-01T05:05:33;102168.81;;;3.21;100.00
15794;BME280;7999;51.208;4.244;2023-02-01T05:08:00;102168.81;;;3.21;100.00
15794;BME280;7999;51.208;4.244;2023-02-01T05:10:27;102170.25;;;3.16;100.00
15794;BME280;7999;51.208;4.244;2023-02-01T05:12:54;102168.66;;;3.18;100.00
15794;BME280;7999;51.208;4.244;2023-02-01T05:15:42;102166.09;;;3.18;100.00
15794;BME280;7999;51.208;4.244;2023-02-01T05:18:09;102170.13;;;3.13;100.00
15794;BME280;7999;51.208;4.244;2023-02-01T05:20:35;102174.38;;;3.13;100.00
15794;BME280;7999;51.208;4.244;2023-02-01T05:23:02;102175.75;;;3.06;100.00
15794;BME280;7999;51.208;4.244;2023-02-01T05:25:29;102173.19;;;3.06;100.00
15794;BME280;7999;51.208;4.244;2023-02-01T05:27:55;102159.84;;;3.13;100.00
15794;BME280;7999;51.208;4.244;2023-02-01T05:30:22;102158.94;;;3.13;100.00
15794;BME280;7999;51.208;4.244;2023-02-01T05:32:50;102151.81;;;3.07;100.00
15794;BME280;7999;51.208;4.244;2023-02-01T05:35:17;102151.75;;;3.05;100.00
15794;BME280;7999;51.208;4.244;2023-02-01T05:37:45;102161.13;;;3.05;100.00
15794;BME280;7999;51.208;4.244;2023-02-01T05:40:13;102170.91;;;3.12;100.00
15794;BME280;7999;51.208;4.244;2023-02-01T05:42:41;102173.19;;;3.06;100.00
15794;BME280;7999;51.208;4.244;2023-02-01T05:45:08;102181.53;;;3.02;100.00
15794;BME280;7999;51.208;4.244;2023-02-01T05:47:36;102186.25;;;3.10;100.00
15794;BME280;7999;51.208;4.244;2023-02-01T05:50:05;102198.38;;;3.13;100.00
15794;BME280;7999;51.208;4.244;2023-02-01T05:52:32;102194.91;;;3.13;100.00
15794;BME280;7999;51.208;4.244;2023-02-01T05:54:59;102202.94;;;3.19;100.00
15794;BME280;7999;51.208;4.244;2023-02-01T05:57:27;102197.88;;;3.20;100.00
15794;BME280;7999;51.208;4.244;2023-02-01T05:59:55;102191.13;;;3.22;100.00
15794;BME280;7999;51.208;4.244;2023-02-01T06:02:23;102194.66;;;3.24;100.00
15794;BME280;7999;51.208;4.244;2023-02-01T06:04:50;102188.56;;;3.22;100.00
15794;BME280;7999;51.208;4.244;2023-02-01T06:07:18;102186.28;;;3.28;100.00
15794;BME280;7999;51.208;4.244;2023-02-01T06:09:46;102170.66;;;3.24;100.00
15794;BME280;7999;51.208;4.244;2023-02-01T06:12:13;102171.28;;;3.20;100.00
15794;BME280;7999;51.208;4.244;2023-02-01T06:14:39;102165.59;;;3.25;100.00
15794;BME280;7999;51.208;4.244;2023-02-01T06:17:11;102178.59;;;3.28;100.00
15794;BME280;7999;51.208;4.244;2023-02-01T06:19:37;102181.06;;;3.27;100.00
15794;BME280;7999;51.208;4.244;2023-02-01T06:22:06;102185.81;;;3.35;100.00
15794;BME280;7999;51.208;4.244;2023-02-01T06:24:34;102184.06;;;3.34;100.00
15794;BME280;7999;51.208;4.244;2023-02-01T06:27:02;102183.66;;;3.27;100.00
15794;BME280;7999;51.208;4.244;2023-02-01T06:29:28;102186.00;;;3.22;100.00
15794;BME280;7999;51.208;4.244;2023-02-01T06:31:55;102191.28;;;3.25;100.00
15794;BME280;7999;51.208;4.244;2023-02-01T06:34:22;102184.81;;;3.16;100.00
15794;BME280;7999;51.208;4.244;2023-02-01T06:36:48;102183.91;;;3.15;100.00
15794;BME280;7999;51.208;4.244;2023-02-01T06:39:16;102184.06;;;3.18;100.00
15794;BME280;7999;51.208;4.244;2023-02-01T06:41:46;102192.44;;;3.14;100.00
15794;BME280;7999;51.208;4.244;2023-02-01T06:44:13;102189.94;;;3.16;100.00
15794;BME280;7999;51.208;4.244;2023-02-01T06:46:43;102191.56;;;3.14;100.00
15794;BME280;7999;51.208;4.244;2023-02-01T06:49:13;102197.25;;;3.08;100.00
15794;BME280;7999;51.208;4.244;2023-02-01T06:51:47;102204.81;;;3.05;100.00
15794;BME280;7999;51.208;4.244;2023-02-01T06:54:14;102204.91;;;3.06;100.00
15794;BME280;7999;51.208;4.244;2023-02-01T06:56:41;102203.59;;;2.98;100.00
15794;BME280;7999;51.208;4.244;2023-02-01T06:59:10;102206.44;;;3.03;100.00
15794;BME280;7999;51.208;4.244;2023-02-01T07:01:37;102207.84;;;2.98;100.00
15794;BME280;7999;51.208;4.244;2023-02-01T07:04:04;102200.94;;;2.97;100.00
15794;BME280;7999;51.208;4.244;2023-02-01T07:06:31;102201.09;;;3.00;100.00
15794;BME280;7999;51.208;4.244;2023-02-01T07:09:01;102196.47;;;3.09;100.00
15794;BME280;7999;51.208;4.244;2023-02-01T07:11:28;102206.34;;;3.01;100.00
15794;BME280;7999;51.208;4.244;2023-02-01T07:13:55;102193.38;;;3.00;100.00
15794;BME280;7999;51.208;4.244;2023-02-01T07:16:24;102205.44;;;3.01;100.00
15794;BME280;7999;51.208;4.244;2023-02-01T07:18:50;102201.91;;;2.99;100.00
15794;BME280;7999;51.208;4.244;2023-02-01T07:21:17;102198.72;;;3.03;100.00
15794;BME280;7999;51.208;4.244;2023-02-01T07:23:45;102202.84;;;3.01;100.00
15794;BME280;7999;51.208;4.244;2023-02-01T07:26:12;102204.53;;;3.00;100.00
15794;BME280;7999;51.208;4.244;2023-02-01T07:28:40;102200.47;;;3.04;100.00
15794;BME280;7999;51.208;4.244;2023-02-01T07:31:08;102195.16;;;3.01;100.00
15794;BME280;7999;51.208;4.244;2023-02-01T07:33:37;102191.00;;;3.03;100.00
15794;BME280;7999;51.208;4.244;2023-02-01T07:36:04;102202.41;;;3.08;100.00
15794;BME280;7999;51.208;4.244;2023-02-01T07:38:32;102201.19;;;3.18;100.00
15794;BME280;7999;51.208;4.244;2023-02-01T07:41:00;102217.88;;;3.26;100.00
15794;BME280;7999;51.208;4.244;2023-02-01T07:43:27;102210.41;;;3.30;100.00
15794;BME280;7999;51.208;4.244;2023-02-01T07:45:54;102217.13;;;3.28;100.00
15794;BME280;7999;51.208;4.244;2023-02-01T07:48:21;102213.06;;;3.32;100.00
15794;BME280;7999;51.208;4.244;2023-02-01T07:50:57;102212.78;;;3.44;100.00
15794;BME280;7999;51.208;4.244;2023-02-01T07:53:24;102213.38;;;3.56;100.00
15794;BME280;7999;51.208;4.244;2023-02-01T07:55:52;102208.09;;;3.53;100.00
15794;BME280;7999;51.208;4.244;2023-02-01T07:58:18;102220.31;;;3.57;100.00
15794;BME280;7999;51.208;4.244;2023-02-01T08:00:46;102215.47;;;3.63;100.00
15794;BME280;7999;51.208;4.244;2023-02-01T08:03:31;102221.59;;;3.65;100.00
15794;BME280;7999;51.208;4.244;2023-02-01T08:05:59;102227.81;;;3.70;100.00
15794;BME280;7999;51.208;4.244;2023-02-01T08:08:26;102239.94;;;3.72;100.00
15794;BME280;7999;51.208;4.244;2023-02-01T08:10:56;102238.41;;;3.76;100.00
15794;BME280;7999;51.208;4.244;2023-02-01T08:13:23;102234.28;;;3.80;100.00
15794;BME280;7999;51.208;4.244;2023-02-01T08:15:50;102238.16;;;3.88;100.00
15794;BME280;7999;51.208;4.244;2023-02-01T08:18:17;102235.81;;;3.92;100.00
15794;BME280;7999;51.208;4.244;2023-02-01T08:20:46;102231.25;;;3.87;100.00
15794;BME280;7999;51.208;4.244;2023-02-01T08:23:14;102236.75;;;3.94;100.00
15794;BME280;7999;51.208;4.244;2023-02-01T08:25:41;102241.09;;;3.95;100.00
15794;BME280;7999;51.208;4.244;2023-02-01T08:28:08;102249.03;;;4.00;100.00
15794;BME280;7999;51.208;4.244;2023-02-01T08:30:36;102258.72;;;4.06;100.00
15794;BME280;7999;51.208;4.244;2023-02-01T08:33:03;102255.09;;;4.18;100.00
15794;BME280;7999;51.208;4.244;2023-02-01T08:35:31;102247.44;;;4.20;100.00
15794;BME280;7999;51.208;4.244;2023-02-01T08:37:58;102244.34;;;4.27;100.00
15794;BME280;7999;51.208;4.244;2023-02-01T08:40:26;102234.47;;;4.36;100.00
15794;BME280;7999;51.208;4.244;2023-02-01T08:42:53;102241.03;;;4.47;100.00
15794;BME280;7999;51.208;4.244;2023-02-01T08:45:21;102235.25;;;4.53;100.00
15794;BME280;7999;51.208;4.244;2023-02-01T08:47:49;102242.25;;;4.55;100.00
15794;BME280;7999;51.208;4.244;2023-02-01T08:50:16;102240.19;;;4.48;100.00
15794;BME280;7999;51.208;4.244;2023-02-01T08:52:43;102224.44;;;4.60;100.00
15794;BME280;7999;51.208;4.244;2023-02-01T08:55:09;102228.97;;;4.65;100.00
15794;BME280;7999;51.208;4.244;2023-02-01T08:57:38;102224.53;;;4.81;100.00
15794;BME280;7999;51.208;4.244;2023-02-01T09:00:06;102222.91;;;4.83;100.00
15794;BME280;7999;51.208;4.244;2023-02-01T09:02:36;102223.03;;;4.86;100.00
15794;BME280;7999;51.208;4.244;2023-02-01T09:05:04;102211.72;;;5.02;100.00
15794;BME280;7999;51.208;4.244;2023-02-01T09:07:31;102210.84;;;5.01;100.00
15794;BME280;7999;51.208;4.244;2023-02-01T09:10:03;102203.78;;;5.16;100.00
15794;BME280;7999;51.208;4.244;2023-02-01T09:12:38;102196.03;;;5.16;100.00
15794;BME280;7999;51.208;4.244;2023-02-01T09:15:06;102194.34;;;5.17;100.00
15794;BME280;7999;51.208;4.244;2023-02-01T09:17:33;102198.84;;;5.42;100.00
15794;BME280;7999;51.208;4.244;2023-02-01T09:20:00;102202.72;;;5.72;100.00
15794;BME280;7999;51.208;4.244;2023-02-01T09:22:27;102200.72;;;6.07;100.00
15794;BME280;7999;51.208;4.244;2023-02-01T09:24:53;102200.16;;;6.59;100.00
15794;BME280;7999;51.208;4.244;2023-02-01T09:27:20;102208.38;;;6.48;100.00
15794;BME280;7999;51.208;4.244;2023-02-01T09:29:48;102195.00;;;6.36;100.00
15794;BME280;7999;51.208;4.244;2023-02-01T09:32:18;102195.88;;;6.59;100.00
15794;BME280;7999;51.208;4.244;2023-02-01T09:34:44;102190.94;;;6.65;100.00
15794;BME280;7999;51.208;4.244;2023-02-01T09:37:12;102186.69;;;6.67;100.00
15794;BME280;7999;51.208;4.244;2023-02-01T09:39:38;102199.34;;;6.60;100.00
15794;BME280;7999;51.208;4.244;2023-02-01T09:42:07;102202.59;;;6.56;100.00
15794;BME280;7999;51.208;4.244;2023-02-01T09:44:51;102189.00;;;6.83;100.00
15794;BME280;7999;51.208;4.244;2023-02-01T09:47:21;102186.25;;;7.27;100.00
15794;BME280;7999;51.208;4.244;2023-02-01T09:49:50;102186.31;;;7.54;100.00
15794;BME280;7999;51.208;4.244;2023-02-01T09:52:20;102178.53;;;8.06;100.00
15794;BME280;7999;51.208;4.244;2023-02-01T09:54:51;102193.00;;;7.72;100.00
15794;BME280;7999;51.208;4.244;2023-02-01T09:57:23;102199.00;;;7.98;100.00
15794;BME280;7999;51.208;4.244;2023-02-01T09:59:54;102195.50;;;8.23;100.00
15794;BME280;7999;51.208;4.244;2023-02-01T10:02:24;102193.28;;;8.09;100.00
15794;BME280;7999;51.208;4.244;2023-02-01T10:04:53;102209.00;;;8.42;100.00
15794;BME280;7999;51.208;4.244;2023-02-01T10:07:23;102220.59;;;8.53;100.00
15794;BME280;7999;51.208;4.244;2023-02-01T10:09:58;102222.34;;;8.82;100.00
15794;BME280;7999;51.208;4.244;2023-02-01T10:12:38;102221.63;;;9.18;100.00
15794;BME280;7999;51.208;4.244;2023-02-01T10:15:14;102229.28;;;9.13;100.00
15794;BME280;7999;51.208;4.244;2023-02-01T10:17:45;102217.25;;;9.48;100.00
15794;BME280;7999;51.208;4.244;2023-02-01T10:20:18;102212.47;;;9.64;100.00
15794;BME280;7999;51.208;4.244;2023-02-01T10:22:51;102203.22;;;9.42;100.00
15794;BME280;7999;51.208;4.244;2023-02-01T10:25:22;102209.59;;;8.90;100.00
15794;BME280;7999;51.208;4.244;2023-02-01T10:27:50;102202.53;;;9.16;100.00
15794;BME280;7999;51.208;4.244;2023-02-01T10:30:20;102207.50;;;9.40;100.00
15794;BME280;7999;51.208;4.244;2023-02-01T10:32:48;102201.00;;;9.57;100.00
15794;BME280;7999;51.208;4.244;2023-02-01T10:35:16;102212.47;;;9.64;100.00
15794;BME280;7999;51.208;4.244;2023-02-01T10:37:43;102210.84;;;9.69;100.00
15794;BME280;7999;51.208;4.244;2023-02-01T10:40:15;102201.31;;;9.35;100.00
15794;BME280;7999;51.208;4.244;2023-02-01T10:42:42;102203.19;;;9.40;100.00
15794;BME280;7999;51.208;4.244;2023-02-01T10:45:12;102197.38;;;8.86;100.00
15794;BME280;7999;51.208;4.244;2023-02-01T10:47:42;102199.47;;;8.99;100.00
15794;BME280;7999;51.208;4.244;2023-02-01T10:50:13;102208.78;;;8.92;100.00
15794;BME280;7999;51.208;4.244;2023-02-01T10:52:44;102213.84;;;8.58;100.00
15794;BME280;7999;51.208;4.244;2023-02-01T10:55:25;102211.69;;;8.73;100.00
15794;BME280;7999;51.208;4.244;2023-02-01T10:57:55;102198.59;;;8.40;100.00
15794;BME280;7999;51.208;4.244;2023-02-01T11:00:22;102193.94;;;8.57;100.00
15794;BME280;7999;51.208;4.244;2023-02-01T11:02:50;102190.59;;;8.61;100.00
15794;BME280;7999;51.208;4.244;2023-02-01T11:05:18;102185.63;;;8.68;100.00
15794;BME280;7999;51.208;4.244;2023-02-01T11:07:48;102195.97;;;8.67;100.00
15794;BME280;7999;51.208;4.244;2023-02-01T11:10:36;102184.38;;;8.54;100.00
15794;BME280;7999;51.208;4.244;2023-02-01T11:13:04;102187.16;;;8.62;100.00
15794;BME280;7999;51.208;4.244;2023-02-01T11:15:31;102189.63;;;8.87;100.00
15794;BME280;7999;51.208;4.244;2023-02-01T11:18:12;102180.84;;;8.82;100.00
15794;BME280;7999;51.208;4.244;2023-02-01T11:20:41;102189.72;;;8.60;100.00
15794;BME280;7999;51.208;4.244;2023-02-01T11:23:11;102177.16;;;8.46;100.00
15794;BME280;7999;51.208;4.244;2023-02-01T11:25:46;102184.59;;;8.33;100.00
15794;BME280;7999;51.208;4.244;2023-02-01T11:28:14;102172.56;;;8.35;100.00
15794;BME280;7999;51.208;4.244;2023-02-01T11:30:42;102170.69;;;8.31;100.00
15794;BME280;7999;51.208;4.244;2023-02-01T11:33:14;102162.91;;;8.31;100.00
15794;BME280;7999;51.208;4.244;2023-02-01T11:38:51;102160.94;;;8.23;100.00
15794;BME280;7999;51.208;4.244;2023-02-01T11:41:21;102164.94;;;8.13;100.00
15794;BME280;7999;51.208;4.244;2023-02-01T11:43:53;102166.78;;;8.17;100.00
15794;BME280;7999;51.208;4.244;2023-02-01T11:46:28;102172.50;;;8.07;100.00
15794;BME280;7999;51.208;4.244;2023-02-01T11:48:57;102165.84;;;8.15;100.00
15794;BME280;7999;51.208;4.244;2023-02-01T11:51:42;102164.41;;;8.23;100.00
15794;BME280;7999;51.208;4.244;2023-02-01T11:54:18;102156.25;;;8.11;100.00
15794;BME280;7999;51.208;4.244;2023-02-01T11:56:49;102154.28;;;8.04;100.00
15794;BME280;7999;51.208;4.244;2023-02-01T11:59:23;102144.84;;;8.06;100.00
15794;BME280;7999;51.208;4.244;2023-02-01T12:01:59;102151.75;;;8.05;100.00
15794;BME280;7999;51.208;4.244;2023-02-01T12:07:16;102142.59;;;8.17;100.00
15794;BME280;7999;51.208;4.244;2023-02-01T12:09:50;102153.75;;;8.14;100.00
15794;BME280;7999;51.208;4.244;2023-02-01T12:12:22;102152.53;;;8.03;100.00
15794;BME280;7999;51.208;4.244;2023-02-01T12:14:56;102145.59;;;8.02;100.00
15794;BME280;7999;51.208;4.244;2023-02-01T12:17:37;102132.97;;;8.13;100.00
15794;BME280;7999;51.208;4.244;2023-02-01T12:20:13;102128.75;;;8.16;100.00
15794;BME280;7999;51.208;4.244;2023-02-01T12:22:52;102149.03;;;8.29;100.00
15794;BME280;7999;51.208;4.244;2023-02-01T12:25:29;102128.19;;;8.25;100.00
15794;BME280;7999;51.208;4.244;2023-02-01T12:28:03;102140.34;;;8.27;100.00
15794;BME280;7999;51.208;4.244;2023-02-01T12:30:39;102136.16;;;8.32;100.00
15794;BME280;7999;51.208;4.244;2023-02-01T12:33:13;102139.00;;;8.40;100.00
15794;BME280;7999;51.208;4.244;2023-02-01T12:35:48;102137.47;;;8.47;100.00
15794;BME280;7999;51.208;4.244;2023-02-01T12:38:29;102142.03;;;8.54;100.00
15794;BME280;7999;51.208;4.244;2023-02-01T12:41:02;102129.81;;;8.50;100.00
15794;BME280;7999;51.208;4.244;2023-02-01T12:43:35;102138.53;;;8.53;100.00
15794;BME280;7999;51.208;4.244;2023-02-01T12:46:04;102136.19;;;8.62;100.00
15794;BME280;7999;51.208;4.244;2023-02-01T12:48:34;102139.63;;;8.61;100.00
15794;BME280;7999;51.208;4.244;2023-02-01T12:51:02;102140.50;;;8.62;100.00
15794;BME280;7999;51.208;4.244;2023-02-01T12:53:34;102128.38;;;8.61;100.00
15794;BME280;7999;51.208;4.244;2023-02-01T12:56:06;102128.25;;;8.56;100.00
15794;BME280;7999;51.208;4.244;2023-02-01T12:58:38;102126.78;;;8.66;100.00
15794;BME280;7999;51.208;4.244;2023-02-01T13:01:09;102127.03;;;8.75;100.00
15794;BME280;7999;51.208;4.244;2023-02-01T13:03:39;102130.75;;;8.83;100.00
15794;BME280;7999;51.208;4.244;2023-02-01T13:06:09;102130.25;;;8.98;100.00
15794;BME280;7999;51.208;4.244;2023-02-01T13:08:43;102125.19;;;9.03;100.00
15794;BME280;7999;51.208;4.244;2023-02-01T13:11:13;102119.72;;;8.92;100.00
15794;BME280;7999;51.208;4.244;2023-02-01T13:13:46;102138.78;;;8.62;100.00
15794;BME280;7999;51.208;4.244;2023-02-01T13:16:16;102132.75;;;8.62;100.00
15794;BME280;7999;51.208;4.244;2023-02-01T13:18:47;102142.19;;;8.60;100.00
15794;BME280;7999;51.208;4.244;2023-02-01T13:21:17;102147.41;;;8.61;100.00
15794;BME280;7999;51.208;4.244;2023-02-01T13:23:48;102143.69;;;8.52;100.00